createdAt,value
2022-10-31T00:00:56.072Z,95378.52
2022-10-31T00:03:22.326Z,95378.52
2022-10-31T00:05:48.664Z,95392.61
2022-10-31T00:08:14.993Z,95369.12
2022-10-31T00:10:41.347Z,95385.32
2022-10-31T00:13:07.748Z,95385.32
2022-10-31T00:15:34.043Z,95393.07
2022-10-31T00:18:00.793Z,95394.47
2022-10-31T00:20:26.712Z,95392.34
2022-10-31T00:22:53.054Z,95392.34
2022-10-31T00:25:19.396Z,95388.61
2022-10-31T00:27:45.736Z,95392.48
2022-10-31T00:30:12.079Z,95392.95
2022-10-31T00:32:38.421Z,95394.70
2022-10-31T00:35:04.777Z,95392.13
2022-10-31T00:37:31.121Z,95395.64
2022-10-31T00:39:57.456Z,95392.27
2022-10-31T00:42:23.801Z,95386.73
2022-10-31T00:44:50.137Z,95390.14
2022-10-31T00:47:16.479Z,95383.33
2022-10-31T00:49:42.818Z,95384.16
2022-10-31T00:52:09.148Z,95384.16
2022-10-31T00:54:35.508Z,95387.20
2022-10-31T00:57:01.873Z,95396.23
2022-10-31T00:59:28.208Z,95386.05
2022-10-31T01:01:54.738Z,95386.52
2022-10-31T01:04:20.912Z,95384.75
2022-10-31T01:06:47.284Z,95386.15
2022-10-31T01:09:13.629Z,95386.52
2022-10-31T01:11:39.979Z,95396.12
2022-10-31T01:14:06.323Z,95395.66
2022-10-31T01:16:32.663Z,95397.87
2022-10-31T01:18:58.996Z,95397.87
2022-10-31T01:21:25.332Z,95404.83
2022-10-31T01:23:51.688Z,95399.77
2022-10-31T01:26:18.052Z,95395.19
2022-10-31T01:28:44.393Z,95395.19
2022-10-31T01:31:10.744Z,95409.73
2022-10-31T01:33:37.080Z,95414.11
2022-10-31T01:36:03.413Z,95412.81
2022-10-31T01:38:29.747Z,95412.81
2022-10-31T01:40:56.081Z,95403.88
2022-10-31T01:45:51.800Z,95400.12
2022-10-31T01:48:18.140Z,95416.43
2022-10-31T01:50:44.473Z,95414.20
2022-10-31T01:53:10.805Z,95418.08
2022-10-31T01:55:37.141Z,95413.52
2022-10-31T01:58:03.899Z,95413.52
2022-10-31T02:00:29.871Z,95413.98
2022-10-31T02:02:56.195Z,95408.81
2022-10-31T02:05:22.517Z,95415.73
2022-10-31T02:07:48.852Z,95402.11
2022-10-31T02:10:15.230Z,95402.11
2022-10-31T02:12:41.564Z,95412.80
2022-10-31T02:15:07.910Z,95410.67
2022-10-31T02:17:34.254Z,95410.67
2022-10-31T02:20:00.606Z,95409.88
2022-10-31T02:22:26.954Z,95408.59
2022-10-31T02:24:53.294Z,95411.17
2022-10-31T02:27:19.633Z,95415.97
2022-10-31T02:29:45.981Z,95422.43
2022-10-31T02:32:12.345Z,95424.19
2022-10-31T02:34:38.705Z,95422.06
2022-10-31T02:37:05.049Z,95425.11
2022-10-31T02:39:31.424Z,95422.06
2022-10-31T02:41:57.772Z,95430.77
2022-10-31T02:44:24.121Z,95433.00
2022-10-31T02:46:50.458Z,95436.97
2022-10-31T02:49:16.814Z,95433.00
2022-10-31T02:51:43.155Z,95436.04
2022-10-31T02:54:09.495Z,95434.28
2022-10-31T02:56:35.846Z,95435.68
2022-10-31T02:59:02.188Z,95433.92
2022-10-31T03:01:28.629Z,95435.68
2022-10-31T03:03:54.881Z,95443.09
2022-10-31T03:06:21.275Z,95443.89
2022-10-31T03:08:47.625Z,95442.14
2022-10-31T03:11:13.964Z,95439.69
2022-10-31T03:13:40.315Z,95435.58
2022-10-31T03:16:06.661Z,95433.47
2022-10-31T03:18:33.005Z,95434.86
2022-10-31T03:20:59.344Z,95429.33
2022-10-31T03:23:25.690Z,95432.41
2022-10-31T03:25:52.031Z,95437.80
2022-10-31T03:30:44.721Z,95445.55
2022-10-31T03:33:11.080Z,95449.52
2022-10-31T03:35:37.413Z,95444.72
2022-10-31T03:38:05.442Z,95452.57
2022-10-31T03:40:30.093Z,95451.28
2022-10-31T03:42:56.448Z,95453.53
2022-10-31T03:45:22.773Z,95456.11
2022-10-31T03:47:49.252Z,95455.64
2022-10-31T03:50:15.583Z,95452.34
2022-10-31T03:52:41.934Z,95456.21
2022-10-31T03:55:11.298Z,95456.21
2022-10-31T03:57:37.640Z,95462.33
2022-10-31T04:00:03.976Z,95466.20
2022-10-31T04:02:30.440Z,95468.30
2022-10-31T04:04:56.658Z,95469.58
2022-10-31T04:07:23.004Z,95475.24
2022-10-31T04:09:49.333Z,95474.05
2022-10-31T04:12:15.688Z,95471.94
2022-10-31T04:14:42.029Z,95473.69
2022-10-31T04:17:08.375Z,95472.76
2022-10-31T04:19:34.721Z,95479.34
2022-10-31T04:22:01.070Z,95480.14
2022-10-31T04:24:27.409Z,95485.44
2022-10-31T04:26:53.759Z,95476.86
2022-10-31T04:29:20.094Z,95479.45
2022-10-31T04:31:46.438Z,95476.40
2022-10-31T04:34:12.783Z,95482.63
2022-10-31T04:36:39.121Z,95479.22
2022-10-31T04:39:05.463Z,95483.42
2022-10-31T04:41:31.809Z,95482.95
2022-10-31T04:43:58.149Z,95484.02
2022-10-31T04:46:24.490Z,95490.47
2022-10-31T04:48:50.833Z,95491.16
2022-10-31T04:51:17.220Z,95493.05
2022-10-31T04:53:43.564Z,95493.52
2022-10-31T04:56:09.921Z,95498.11
2022-10-31T04:58:36.266Z,95503.27
2022-10-31T05:01:02.689Z,95508.44
2022-10-31T05:03:28.999Z,95496.82
2022-10-31T05:05:55.343Z,95497.16
2022-10-31T05:08:21.684Z,95495.53
2022-10-31T05:10:48.068Z,95491.53
2022-10-31T05:13:14.444Z,95500.56
2022-10-31T05:15:40.768Z,95503.14
2022-10-31T05:18:07.106Z,95498.34
2022-10-31T05:20:33.473Z,95509.13
2022-10-31T05:22:59.813Z,95515.48
2022-10-31T05:28:08.436Z,95520.38
2022-10-31T05:30:34.774Z,95523.33
2022-10-31T05:33:01.360Z,95520.38
2022-10-31T05:35:27.463Z,95526.73
2022-10-31T05:37:53.815Z,95528.03
2022-10-31T05:40:20.168Z,95526.61
2022-10-31T05:42:46.571Z,95526.05
2022-10-31T05:45:12.849Z,95527.11
2022-10-31T05:47:39.198Z,95536.38
2022-10-31T05:50:05.544Z,95534.63
2022-10-31T05:52:31.952Z,95533.34
2022-10-31T05:54:58.303Z,95536.52
2022-10-31T05:57:24.652Z,95542.37
2022-10-31T05:59:54.770Z,95546.84
2022-10-31T06:02:17.345Z,95546.48
2022-10-31T06:04:43.741Z,95545.69
2022-10-31T06:07:10.033Z,95549.89
2022-10-31T06:09:36.379Z,95551.19
2022-10-31T06:12:02.778Z,95551.31
2022-10-31T06:14:29.109Z,95558.60
2022-10-31T06:16:55.468Z,95565.29
2022-10-31T06:19:21.813Z,95567.64
2022-10-31T06:21:48.156Z,95565.75
2022-10-31T06:24:14.496Z,95568.47
2022-10-31T06:26:40.887Z,95574.36
2022-10-31T06:29:07.217Z,95576.12
2022-10-31T06:31:33.597Z,95572.01
2022-10-31T06:33:59.954Z,95576.81
2022-10-31T06:38:52.641Z,95587.14
2022-10-31T06:41:18.994Z,95584.80
2022-10-31T06:43:45.332Z,95583.73
2022-10-31T06:46:11.676Z,95585.39
2022-10-31T06:48:38.035Z,95563.63
2022-10-31T06:51:04.376Z,95591.88
2022-10-31T06:53:30.771Z,95589.89
2022-10-31T06:55:57.078Z,95589.89
2022-10-31T06:58:23.564Z,95593.07
2022-10-31T07:00:49.970Z,95590.95
2022-10-31T07:03:17.434Z,95592.84
2022-10-31T07:05:42.593Z,95592.84
2022-10-31T07:08:08.923Z,95574.00
2022-10-31T07:10:39.118Z,95574.00
2022-10-31T07:13:01.820Z,95588.73
2022-10-31T07:15:27.956Z,95580.05
2022-10-31T07:17:54.289Z,95588.86
2022-10-31T07:20:20.660Z,95583.92
2022-10-31T07:22:50.517Z,95579.47
2022-10-31T07:25:13.393Z,95580.85
2022-10-31T07:27:42.638Z,95555.73
2022-10-31T07:30:06.069Z,95555.73
2022-10-31T07:32:32.402Z,95566.80
2022-10-31T07:34:58.746Z,95570.07
2022-10-31T07:37:25.088Z,95560.55
2022-10-31T07:39:51.431Z,95563.49
2022-10-31T07:42:17.760Z,95574.16
2022-10-31T07:44:44.133Z,95568.09
2022-10-31T07:47:10.463Z,95568.09
2022-10-31T07:49:36.818Z,95561.96
2022-10-31T07:52:03.222Z,95575.94
2022-10-31T07:54:29.569Z,95570.65
2022-10-31T07:56:55.903Z,95570.65
2022-10-31T07:59:22.246Z,95575.02
2022-10-31T08:01:48.584Z,95551.59
2022-10-31T08:04:14.924Z,95551.59
2022-10-31T08:06:41.264Z,95576.39
2022-10-31T08:09:07.613Z,95577.21
2022-10-31T08:11:33.944Z,95570.19
2022-10-31T08:14:00.372Z,95570.88
2022-10-31T08:16:26.712Z,95568.89
2022-10-31T08:18:53.149Z,95571.00
2022-10-31T08:21:19.484Z,95571.00
2022-10-31T08:23:45.817Z,95573.70
2022-10-31T08:26:12.156Z,95551.39
2022-10-31T08:28:39.698Z,95578.54
2022-10-31T08:31:04.828Z,95557.96
2022-10-31T08:33:31.187Z,95561.38
2022-10-31T08:35:57.555Z,95561.38
2022-10-31T08:38:24.843Z,95571.00
2022-10-31T08:40:50.273Z,95570.77
2022-10-31T08:43:16.636Z,95568.29
2022-10-31T08:45:42.966Z,95546.91
2022-10-31T08:48:09.318Z,95560.31
2022-10-31T08:50:35.657Z,95558.06
2022-10-31T08:53:06.120Z,95561.20
2022-10-31T08:55:28.337Z,95561.20
2022-10-31T08:57:54.736Z,95564.03
2022-10-31T09:00:22.310Z,95561.95
2022-10-31T09:02:47.435Z,95549.87
2022-10-31T09:05:13.835Z,95549.87
2022-10-31T09:07:41.141Z,95559.25
2022-10-31T09:10:06.509Z,95554.73
2022-10-31T09:12:32.872Z,95542.86
2022-10-31T09:14:59.232Z,95563.77
2022-10-31T09:17:25.577Z,95559.08
2022-10-31T09:19:51.967Z,95554.27
2022-10-31T09:22:18.329Z,95557.18
2022-10-31T09:24:44.683Z,95557.34
2022-10-31T09:27:11.015Z,95553.88
2022-10-31T09:29:37.447Z,95553.22
2022-10-31T09:32:03.783Z,95551.20
2022-10-31T09:34:30.133Z,95546.42
2022-10-31T09:36:56.481Z,95552.67
2022-10-31T09:39:22.815Z,95547.07
2022-10-31T09:41:53.155Z,95546.38
2022-10-31T09:44:15.520Z,95549.80
2022-10-31T09:46:41.871Z,95548.25
2022-10-31T09:49:10.494Z,95546.85
2022-10-31T09:51:36.767Z,95540.34
2022-10-31T09:54:03.112Z,95543.11
2022-10-31T09:56:29.449Z,95546.54
2022-10-31T09:58:55.873Z,95538.82
2022-10-31T10:01:22.314Z,95539.36
2022-10-31T10:03:48.552Z,95537.38
2022-10-31T10:06:14.889Z,95536.17
2022-10-31T10:08:41.224Z,95530.89
2022-10-31T10:11:07.568Z,95525.94
2022-10-31T10:13:33.913Z,95519.93
2022-10-31T10:16:00.261Z,95520.76
2022-10-31T10:18:26.602Z,95511.09
2022-10-31T10:20:52.967Z,95512.97
2022-10-31T10:23:19.290Z,95514.59
2022-10-31T10:25:45.655Z,95510.27
2022-10-31T10:28:11.985Z,95506.97
2022-10-31T10:30:38.358Z,95497.94
2022-10-31T10:33:04.705Z,95497.22
2022-10-31T10:35:31.047Z,95505.81
2022-10-31T10:37:57.562Z,95493.42
2022-10-31T10:40:23.726Z,95493.42
2022-10-31T10:42:50.058Z,95487.97
2022-10-31T10:45:16.404Z,95480.70
2022-10-31T10:47:42.734Z,95480.70
2022-10-31T10:50:09.108Z,95485.38
2022-10-31T10:52:42.083Z,95481.49
2022-10-31T10:55:01.783Z,95478.83
2022-10-31T10:57:28.119Z,95477.41
2022-10-31T10:59:54.498Z,95477.69
2022-10-31T11:02:20.833Z,95473.41
2022-10-31T11:04:47.186Z,95474.30
2022-10-31T11:07:13.532Z,95470.98
2022-10-31T11:09:39.869Z,95464.53
2022-10-31T11:12:06.218Z,95462.40
2022-10-31T11:14:32.556Z,95465.82
2022-10-31T11:16:58.898Z,95463.45
2022-10-31T11:19:25.232Z,95458.95
2022-10-31T11:21:54.223Z,95453.41
2022-10-31T11:24:17.910Z,95453.41
2022-10-31T11:26:44.259Z,95444.03
2022-10-31T11:29:10.599Z,95452.00
2022-10-31T11:31:38.361Z,95444.03
2022-10-31T11:34:03.300Z,95437.28
2022-10-31T11:36:29.652Z,95437.41
2022-10-31T11:38:55.993Z,95434.39
2022-10-31T11:41:22.336Z,95434.80
2022-10-31T11:43:48.675Z,95433.94
2022-10-31T11:46:15.030Z,95430.05
2022-10-31T11:48:41.362Z,95429.52
2022-10-31T11:51:07.725Z,95431.31
2022-10-31T11:53:34.069Z,95432.61
2022-10-31T11:56:00.417Z,95426.65
2022-10-31T11:58:26.749Z,95426.11
2022-10-31T12:00:53.129Z,95420.92
2022-10-31T12:03:19.451Z,95416.11
2022-10-31T12:05:45.847Z,95415.75
2022-10-31T12:08:12.220Z,95416.98
2022-10-31T12:10:38.675Z,95417.62
2022-10-31T12:13:05.022Z,95410.57
2022-10-31T12:15:31.359Z,95411.08
2022-10-31T12:20:24.038Z,95411.48
2022-10-31T12:22:50.392Z,95414.14
2022-10-31T12:25:16.739Z,95412.63
2022-10-31T12:27:43.165Z,95413.92
2022-10-31T12:30:09.456Z,95410.52
2022-10-31T12:32:35.792Z,95410.66
2022-10-31T12:35:02.237Z,95411.66
2022-10-31T12:37:28.573Z,95413.56
2022-10-31T12:39:54.946Z,95411.34
2022-10-31T12:42:21.267Z,95413.89
2022-10-31T12:44:47.624Z,95407.34
2022-10-31T12:47:13.964Z,95410.83
2022-10-31T12:49:42.768Z,95408.49
2022-10-31T12:52:09.112Z,95403.22
2022-10-31T12:54:35.450Z,95407.36
2022-10-31T12:57:01.792Z,95412.78
2022-10-31T12:59:28.138Z,95408.89
2022-10-31T13:01:54.585Z,95405.86
2022-10-31T13:04:20.824Z,95407.09
2022-10-31T13:06:47.198Z,95408.34
2022-10-31T13:09:13.550Z,95413.42
2022-10-31T13:11:39.891Z,95411.19
2022-10-31T13:14:06.367Z,95411.15
2022-10-31T13:16:32.659Z,95411.19
2022-10-31T13:18:58.998Z,95414.46
2022-10-31T13:21:25.417Z,95414.60
2022-10-31T13:23:52.358Z,95403.31
2022-10-31T13:26:18.111Z,95403.31
2022-10-31T13:28:44.509Z,95408.61
2022-10-31T13:31:10.782Z,95407.66
2022-10-31T13:33:37.157Z,95408.23
2022-10-31T13:36:03.512Z,95411.30
2022-10-31T13:38:29.852Z,95415.11
2022-10-31T13:40:56.228Z,95408.81
2022-10-31T13:43:22.567Z,95406.75
2022-10-31T13:45:48.894Z,95411.31
2022-10-31T13:48:15.240Z,95416.07
2022-10-31T13:50:41.576Z,95413.43
2022-10-31T13:53:08.040Z,95412.02
2022-10-31T13:55:34.369Z,95407.07
2022-10-31T13:58:00.919Z,95417.36
2022-10-31T14:00:27.071Z,95410.06
2022-10-31T14:02:53.436Z,95415.28
2022-10-31T14:05:19.743Z,95416.43
2022-10-31T14:07:46.077Z,95416.64
2022-10-31T14:10:12.423Z,95418.50
2022-10-31T14:12:38.767Z,95412.75
2022-10-31T14:15:05.126Z,95417.66
2022-10-31T14:17:31.454Z,95418.25
2022-10-31T14:19:57.787Z,95419.91
2022-10-31T14:22:24.174Z,95420.11
2022-10-31T14:24:50.506Z,95422.70
2022-10-31T14:27:16.856Z,95418.39
2022-10-31T14:29:47.885Z,95423.43
2022-10-31T14:32:09.549Z,95421.50
2022-10-31T14:34:37.580Z,95422.75
2022-10-31T14:37:02.241Z,95418.61
2022-10-31T14:39:28.652Z,95420.73
2022-10-31T14:41:55.002Z,95417.52
2022-10-31T14:44:21.341Z,95419.89
2022-10-31T14:46:47.683Z,95420.86
2022-10-31T14:49:14.027Z,95423.02
2022-10-31T14:51:40.371Z,95416.09
2022-10-31T14:54:06.710Z,95416.27
2022-10-31T14:56:33.048Z,95418.92
2022-10-31T14:58:59.387Z,95418.59
2022-10-31T15:01:25.842Z,95411.81
2022-10-31T15:04:17.541Z,95425.97
2022-10-31T15:06:18.414Z,95418.67
2022-10-31T15:08:44.775Z,95417.98
2022-10-31T15:11:11.099Z,95417.30
2022-10-31T15:13:37.463Z,95417.30
2022-10-31T15:16:03.783Z,95432.36
2022-10-31T15:18:30.126Z,95434.80
2022-10-31T15:20:56.466Z,95434.80
2022-10-31T15:23:22.837Z,95439.62
2022-10-31T15:25:49.177Z,95437.03
2022-10-31T15:28:15.559Z,95430.27
2022-10-31T15:30:41.915Z,95437.45
2022-10-31T15:33:08.254Z,95436.84
2022-10-31T15:35:34.594Z,95446.73
2022-10-31T15:38:01.257Z,95427.00
2022-10-31T15:40:27.307Z,95452.39
2022-10-31T15:42:53.660Z,95451.46
2022-10-31T15:45:19.998Z,95453.09
2022-10-31T15:47:46.342Z,95456.05
2022-10-31T15:50:12.743Z,95455.59
2022-10-31T15:52:41.094Z,95450.77
2022-10-31T15:55:05.480Z,95448.02
2022-10-31T15:57:31.816Z,95442.16
2022-10-31T15:59:58.158Z,95450.11
2022-10-31T16:02:24.611Z,95459.91
2022-10-31T16:04:50.846Z,95452.88
2022-10-31T16:07:22.740Z,95452.88
2022-10-31T16:09:43.521Z,95461.46
2022-10-31T16:12:09.859Z,95468.17
2022-10-31T16:14:36.205Z,95476.06
2022-10-31T16:17:02.535Z,95476.06
2022-10-31T16:19:28.935Z,95479.69
2022-10-31T16:21:55.270Z,95479.69
2022-10-31T16:24:21.612Z,95484.64
2022-10-31T16:26:47.954Z,95471.23
2022-10-31T16:29:14.292Z,95487.34
2022-10-31T16:31:40.653Z,95477.95
2022-10-31T16:34:06.965Z,95492.52
2022-10-31T16:36:35.759Z,95492.52
2022-10-31T16:38:59.650Z,95500.82
2022-10-31T16:41:25.987Z,95483.34
2022-10-31T16:43:52.608Z,95485.59
2022-10-31T16:46:18.668Z,95506.03
2022-10-31T16:48:45.008Z,95511.20
2022-10-31T16:51:11.341Z,95511.20
2022-10-31T16:53:40.595Z,95506.73
2022-10-31T16:56:04.020Z,95509.66
2022-10-31T16:58:30.354Z,95515.89
2022-10-31T17:00:56.751Z,95515.89
2022-10-31T17:03:23.037Z,95518.83
2022-10-31T17:05:49.371Z,95510.38
2022-10-31T17:08:15.712Z,95523.41
2022-10-31T17:10:42.054Z,95527.64
2022-10-31T17:13:08.436Z,95513.77
2022-10-31T17:15:34.803Z,95528.70
2022-10-31T17:18:01.466Z,95512.25
2022-10-31T17:20:27.473Z,95527.04
2022-10-31T17:22:53.826Z,95533.40
2022-10-31T17:25:20.148Z,95517.77
2022-10-31T17:27:47.458Z,95515.78
2022-10-31T17:30:12.822Z,95533.98
2022-10-31T17:32:39.179Z,95533.98
2022-10-31T17:35:05.520Z,95528.70
2022-10-31T17:37:31.868Z,95528.70
2022-10-31T17:39:58.234Z,95540.19
2022-10-31T17:42:24.536Z,95532.45
2022-10-31T17:44:50.884Z,95548.89
2022-10-31T17:47:17.223Z,95549.36
2022-10-31T17:49:43.560Z,95554.17
2022-10-31T17:52:09.901Z,95550.80
2022-10-31T17:54:36.251Z,95554.17
2022-10-31T17:57:02.591Z,95550.44
2022-10-31T17:59:28.928Z,95557.83
2022-10-31T18:01:55.363Z,95561.70
2022-10-31T18:04:21.597Z,95559.13
2022-10-31T18:06:47.940Z,95555.48
2022-10-31T18:09:14.272Z,95546.09
2022-10-31T18:11:40.614Z,95549.39
2022-10-31T18:14:06.945Z,95555.72
2022-10-31T18:16:33.329Z,95554.79
2022-10-31T18:18:59.631Z,95547.38
2022-10-31T18:21:25.972Z,95560.89
2022-10-31T18:23:52.583Z,95564.41
2022-10-31T18:26:18.865Z,95561.96
2022-10-31T18:28:45.216Z,95563.25
2022-10-31T18:31:11.563Z,95563.36
2022-10-31T18:33:37.975Z,95563.36
2022-10-31T18:36:04.267Z,95563.13
2022-10-31T18:38:30.598Z,95566.19
2022-10-31T18:40:56.949Z,95570.20
2022-10-31T18:43:23.312Z,95570.20
2022-10-31T18:45:55.031Z,95543.39
2022-10-31T18:48:16.019Z,95579.59
2022-10-31T18:50:42.375Z,95566.91
2022-10-31T18:53:08.705Z,95575.95
2022-10-31T18:55:35.050Z,95581.11
2022-10-31T18:58:01.385Z,95570.89
2022-10-31T19:00:27.721Z,95570.89
2022-10-31T19:02:56.661Z,95586.75
2022-10-31T19:05:22.620Z,95572.05
2022-10-31T19:07:48.962Z,95572.05
2022-10-31T19:10:15.298Z,95583.58
2022-10-31T19:12:41.800Z,95589.57
2022-10-31T19:15:08.147Z,95587.58
2022-10-31T19:17:34.484Z,95589.11
2022-10-31T19:20:00.828Z,95590.77
2022-10-31T19:22:27.164Z,95571.36
2022-10-31T19:24:53.501Z,95573.94
2022-10-31T19:27:19.872Z,95589.57
2022-10-31T19:29:46.209Z,95574.77
2022-10-31T19:32:12.540Z,95574.77
2022-10-31T19:34:38.913Z,95584.04
2022-10-31T19:37:05.242Z,95586.16
2022-10-31T19:39:31.582Z,95583.70
2022-10-31T19:41:57.920Z,95587.22
2022-10-31T19:44:24.267Z,95587.22
2022-10-31T19:46:54.237Z,95575.47
2022-10-31T19:49:16.945Z,95593.81
2022-10-31T19:51:43.277Z,95598.16
2022-10-31T19:54:09.620Z,95595.81
2022-10-31T19:56:35.964Z,95599.42
2022-10-31T19:59:02.304Z,95602.24
2022-10-31T20:01:28.688Z,95602.24
2022-10-31T20:03:54.970Z,95588.50
2022-10-31T20:06:21.307Z,95608.70
2022-10-31T20:08:47.680Z,95605.06
2022-10-31T20:11:14.013Z,95607.18
2022-10-31T20:13:40.358Z,95609.66
2022-10-31T20:16:06.695Z,95611.89
2022-10-31T20:18:33.035Z,95610.00
2022-10-31T20:21:03.675Z,95616.95
2022-10-31T20:23:25.720Z,95618.11
2022-10-31T20:25:52.057Z,95614.23
2022-10-31T20:28:18.399Z,95614.23
2022-10-31T20:30:44.739Z,95624.11
2022-10-31T20:33:11.144Z,95622.69
2022-10-31T20:35:37.477Z,95611.66
2022-10-31T20:38:04.086Z,95611.66
2022-10-31T20:40:30.157Z,95629.38
2022-10-31T20:42:56.499Z,95630.34
2022-10-31T20:45:22.834Z,95626.46
2022-10-31T20:47:49.175Z,95626.46
2022-10-31T20:50:15.509Z,95630.80
2022-10-31T20:52:41.889Z,95610.09
2022-10-31T20:55:08.198Z,95629.97
2022-10-31T20:57:34.538Z,95610.23
2022-10-31T21:00:00.953Z,95635.24
2022-10-31T21:02:27.333Z,95632.06
2022-10-31T21:04:53.616Z,95625.60
2022-10-31T21:07:19.954Z,95639.62
2022-10-31T21:09:46.290Z,95640.18
2022-10-31T21:12:12.632Z,95641.47
2022-10-31T21:14:38.974Z,95641.47
2022-10-31T21:17:05.310Z,95639.48
2022-10-31T21:19:31.651Z,95619.60
2022-10-31T21:21:57.992Z,95619.60
2022-10-31T21:24:24.327Z,95638.29
2022-10-31T21:26:50.687Z,95645.11
2022-10-31T21:29:17.028Z,95632.75
2022-10-31T21:31:43.357Z,95643.45
2022-10-31T21:34:09.698Z,95643.45
2022-10-31T21:36:36.033Z,95640.54
2022-10-31T21:39:02.372Z,95641.94
2022-10-31T21:41:28.712Z,95642.30
2022-10-31T21:43:55.080Z,95641.94
2022-10-31T21:46:23.829Z,95641.23
2022-10-31T21:48:47.755Z,95641.23
2022-10-31T21:51:14.099Z,95641.23
2022-10-31T21:53:40.439Z,95640.28
2022-10-31T21:56:06.771Z,95636.89
2022-10-31T21:58:34.877Z,95625.93
2022-10-31T22:00:59.503Z,95641.33
2022-10-31T22:03:25.799Z,95641.33
2022-10-31T22:05:54.746Z,95644.75
2022-10-31T22:08:18.663Z,95630.00
2022-10-31T22:10:45.004Z,95630.00
2022-10-31T22:13:11.340Z,95633.72
2022-10-31T22:15:37.674Z,95635.01
2022-10-31T22:18:04.288Z,95635.01
2022-10-31T22:20:30.344Z,95637.69
2022-10-31T22:22:56.686Z,95646.63
2022-10-31T22:25:23.021Z,95646.63
2022-10-31T22:27:49.365Z,95643.78
2022-10-31T22:30:15.702Z,95624.36
2022-10-31T22:32:42.044Z,95624.36
2022-10-31T22:35:08.378Z,95645.08
2022-10-31T22:37:34.719Z,95645.08
2022-10-31T22:40:01.050Z,95634.47
2022-10-31T22:42:27.677Z,95634.47
2022-10-31T22:44:54.016Z,95653.88
2022-10-31T22:47:20.427Z,95655.64
2022-10-31T22:49:48.577Z,95650.47
2022-10-31T22:52:13.063Z,95653.16
2022-10-31T22:54:39.398Z,95643.84
2022-10-31T22:57:05.752Z,95643.84
2022-10-31T22:59:33.300Z,95647.75
2022-10-31T23:01:58.533Z,95654.45
2022-10-31T23:04:24.770Z,95652.09
2022-10-31T23:06:51.141Z,95649.05
2022-10-31T23:09:17.476Z,95637.05
2022-10-31T23:11:43.818Z,95637.05
2022-10-31T23:14:10.321Z,95642.22
2022-10-31T23:16:36.494Z,95641.39
2022-10-31T23:19:02.833Z,95650.44
2022-10-31T23:21:29.175Z,95644.91
2022-10-31T23:23:55.507Z,95642.31
2022-10-31T23:26:21.850Z,95642.31
2022-10-31T23:28:48.192Z,95639.41
2022-10-31T23:31:14.533Z,95636.81
2022-10-31T23:33:40.865Z,95631.84
2022-10-31T23:36:07.201Z,95631.84
2022-10-31T23:38:33.536Z,95631.75
2022-10-31T23:40:59.881Z,95636.58
2022-10-31T23:43:26.274Z,95639.50
2022-10-31T23:45:52.636Z,95639.50
2022-10-31T23:48:18.972Z,95635.75
2022-10-31T23:50:45.319Z,95636.09
2022-10-31T23:53:11.654Z,95642.21
2022-10-31T23:55:37.988Z,95642.21
2022-10-31T23:58:04.607Z,95625.61
